North Windham, Connecticut
Current Conditions -  °F | °C
As of 8:11 PM on Tuesday 27 Jan 2015 (Local Time) from KIJD Reporting Station
Light Snow Light Snow  
Wind Chill: -1°   Ceiling: 2700
Heat Index: 15°   Visibility: 1.7mi
Dew Point:   Wind: 16mph
Humidity: 74%   Direction: 340°NNW
Pressure: 29.68"   Gusts: 25mph
Location:  41.75°N, 72.15°W
Report Text: KIJD 280111Z AUTO 34014G22KT 1 3/4SM -SN OVC027 M09/M13 A2968 RMK AO2 P0000 T10941133
Loading
Personal Weather Stations






























Interactive Weather Map New forecast layout! Learn more

10-Day Weather Forecast

Advertisements
Track Severe Weather on mobile